Faucett, MO (64448)

2:52 AM CDT on July 28, 2016 (GMT -0500)
St Joseph | | Change Station

Elev 1060 ft 39.66 °N, 94.86 °W | Updated 14 minutes ago

Scattered Clouds
Scattered Clouds
72.3 °F
Feels Like 72.3 °F
N
0.0
Wind Variable Wind from WSW

Today
High -- | Low -- °F
--% Chance of Precip.
Yesterday
High -- | Low -- °F
Precip. -- in
Pressure 29.92 in
Visibility 7.0 miles
Clouds Scattered Clouds 3500 ft
Dew Point 69 °F
Humidity 90%
Rainfall 0.00 in
Snow Depth Not available.
6:15 AM 8:35 PM
Waning Crescent, 34% visible
METAR KSTJ 280653Z AUTO 35003KT 7SM SCT035 23/22 A2995 RMK AO2 SLP132 T02280217
Pressure 29.92 in
Visibility 7.0 miles
Clouds Scattered Clouds 3500 ft
Dew Point 69 °F
Humidity 90%
Rainfall 0.00 in
Snow Depth Not available.
6:15 AM 8:35 PM
Waning Crescent, 34% visible
METAR KSTJ 280653Z AUTO 35003KT 7SM SCT035 23/22 A2995 RMK AO2 SLP132 T02280217

10-Day Weather Forecast

Almanac

Astronomy

Jul. 28, 2016 Rise Set
Actual Time
Civil Twilight
Nautical Twilight
Astronomical Twilight
Moon
Length of Visible Light
Length of Day
Tomorrow will be .
, % of the Moon is Illuminated

Today's Extremes

State Highs State Lows

Community

WunderPhotos

Upload Photos

1,928,070 photos uploaded!

WunderBlog® & News

Nearby

Air Quality

  Air Quality AQ Index Pollutant
Not available.

Snow Depth

Station Depth Elevation

Earthquake Activity

City Distance Mag. Time & Date
Minimum magnitude displayed is 2.5.

Coastal Water Temperatures

Place Temperature

Stations

Nearby Weather Stations

Station Location Temp. Windchill Dew Point Humidity Wind Precip. Elev Updated Type
                   

Watches & Warnings

There are currently no watches in effect.